FW0428 Weather Reports


Display with metric or nautical units.
time (UTC)temp
F
wind
direction
speed
MPH
gust
MPH
rain 1hr
in
rain 24hr
in
rain mn
in
humidity
%
barometer
mb
20220528201518 88 167 0.0 7.0 0.00 0.00 0.00 42 1010.1
20220528200156 87 196 1.0 4.0 0.00 0.00 0.00 43 1010.3
20220528194505 87 167 1.0 6.0 0.00 0.00 0.00 43 1010.5
20220528173025 83 195 1.0 10.0 0.00 0.00 0.00 46 1012.5
20220528171701 82 166 0.0 3.0 0.00 0.00 0.00 48 1012.6
20220528170153 82 144 1.0 5.0 0.00 0.00 0.00 48 1012.7
20220528164519 81 153 0.0 6.0 0.00 0.00 0.00 48 1012.8
20220528161638 80 160 1.0 5.0 0.00 0.00 0.00 49 1013.2
20220528160126 79 140 0.0 5.0 0.00 0.00 0.00 50 1013.3
20220528151620 77 178 1.0 9.0 0.00 0.00 0.00 53 1013.3
20220528143144 74 154 0.0 8.0 0.00 0.00 0.00 57 1013.1
20220528141610 74 119 1.0 7.0 0.00 0.00 0.00 58 1013.1
20220528133008 70 166 1.0 7.0 0.00 0.00 0.00 64 1012.7
20220528121615 66 138 0.0 2.0 0.00 0.00 0.00 73 1012.2
20220528103144 63 98 0.0 0.0 0.00 0.00 0.00 79 1011.5
20220528101517 63 98 0.0 0.0 0.00 0.00 0.00 78 1011.4
20220528094535 64 98 0.0 0.0 0.00 0.00 0.00 78 1011.5
20220528090010 64 98 0.0 0.0 0.00 0.00 0.00 77 1011.5
20220528081529 65 98 0.0 0.0 0.00 0.00 0.00 76 1011.8
20220528064555 67 98 0.0 0.0 0.00 0.00 0.00 69 1012.4
20220528063033 68 98 0.0 0.0 0.00 0.00 0.00 68 1012.5
20220528061551 68 98 0.0 0.0 0.00 0.00 0.00 68 1012.6
20220528060058 68 98 0.0 0.0 0.00 0.00 0.00 67 1012.7
20220528054604 68 98 0.0 0.0 0.00 0.00 0.00 67 1012.8
20220528053023 69 98 0.0 0.0 0.00 0.00 0.00 67 1013.0
20220528051602 69 98 0.0 0.0 0.00 0.00 0.00 65 1013.0
20220528050115 70 98 0.0 0.0 0.00 0.00 0.00 64 1013.2
20220528043035 71 98 0.0 0.0 0.00 0.00 0.00 64 1013.3
20220528024615 75 98 0.0 0.0 0.00 0.00 0.00 55 1012.9
20220528023156 75 98 0.0 0.0 0.00 0.00 0.00 54 1012.9
20220528021519 76 98 0.0 0.0 0.00 0.00 0.00 50 1013.0
20220528014627 79 98 0.0 0.0 0.00 0.00 0.00 48 1012.8
20220528013120 80 98 0.0 0.0 0.00 0.00 0.00 45 1012.6
20220528003156 83 93 0.0 0.0 0.00 0.00 0.00 37 1012.6
20220528000029 84 119 0.0 1.0 0.00 0.00 0.00 38 1012.5
20220527230040 87 78 0.0 2.0 0.00 0.00 0.00 34 1012.7
20220527211648 87 51 0.0 2.0 0.00 0.00 0.00 34 1013.7
20220527204700 84 17 1.0 6.0 0.00 0.00 0.00 35 1014.2